sensor_id;sensor_type;location;lat;lon;timestamp;temperature;humidity
51801;DHT22;37855;53.204;6.568;2023-06-04T00:00:26;12.30;72.10
51801;DHT22;37855;53.204;6.568;2023-06-04T00:02:51;12.30;72.40
51801;DHT22;37855;53.204;6.568;2023-06-04T00:05:17;12.30;72.50
51801;DHT22;37855;53.204;6.568;2023-06-04T00:07:43;12.30;72.30
51801;DHT22;37855;53.204;6.568;2023-06-04T00:10:09;12.20;72.40
51801;DHT22;37855;53.204;6.568;2023-06-04T00:12:35;12.20;72.70
51801;DHT22;37855;53.204;6.568;2023-06-04T00:15:01;12.10;72.70
51801;DHT22;37855;53.204;6.568;2023-06-04T00:17:27;12.10;73.00
51801;DHT22;37855;53.204;6.568;2023-06-04T00:19:52;12.10;72.90
51801;DHT22;37855;53.204;6.568;2023-06-04T00:22:18;12.10;73.40
51801;DHT22;37855;53.204;6.568;2023-06-04T00:24:44;12.00;73.10
51801;DHT22;37855;53.204;6.568;2023-06-04T00:27:09;11.90;74.00
51801;DHT22;37855;53.204;6.568;2023-06-04T00:29:35;12.00;73.50
51801;DHT22;37855;53.204;6.568;2023-06-04T00:32:02;12.00;73.50
51801;DHT22;37855;53.204;6.568;2023-06-04T00:34:27;12.00;73.70
51801;DHT22;37855;53.204;6.568;2023-06-04T00:36:53;12.00;73.70
51801;DHT22;37855;53.204;6.568;2023-06-04T00:39:19;11.90;74.10
51801;DHT22;37855;53.204;6.568;2023-06-04T00:41:45;11.80;74.30
51801;DHT22;37855;53.204;6.568;2023-06-04T00:44:10;11.90;74.40
51801;DHT22;37855;53.204;6.568;2023-06-04T00:46:37;11.80;74.10
51801;DHT22;37855;53.204;6.568;2023-06-04T00:49:05;11.80;74.20
51801;DHT22;37855;53.204;6.568;2023-06-04T00:51:31;11.80;74.00
51801;DHT22;37855;53.204;6.568;2023-06-04T00:53:58;11.80;74.10
51801;DHT22;37855;53.204;6.568;2023-06-04T00:56:24;11.80;74.50
51801;DHT22;37855;53.204;6.568;2023-06-04T00:58:49;11.70;74.90
51801;DHT22;37855;53.204;6.568;2023-06-04T01:01:39;11.70;74.60
51801;DHT22;37855;53.204;6.568;2023-06-04T01:04:16;11.70;74.40
51801;DHT22;37855;53.204;6.568;2023-06-04T01:06:50;11.70;74.50
51801;DHT22;37855;53.204;6.568;2023-06-04T01:09:16;11.70;74.40
51801;DHT22;37855;53.204;6.568;2023-06-04T01:11:42;11.80;74.70
51801;DHT22;37855;53.204;6.568;2023-06-04T01:14:09;11.70;74.50
51801;DHT22;37855;53.204;6.568;2023-06-04T01:16:49;11.70;74.70
51801;DHT22;37855;53.204;6.568;2023-06-04T01:19:46;11.70;74.90
51801;DHT22;37855;53.204;6.568;2023-06-04T01:24:55;11.60;75.10
51801;DHT22;37855;53.204;6.568;2023-06-04T01:27:22;11.50;74.80
51801;DHT22;37855;53.204;6.568;2023-06-04T01:29:48;11.50;74.70
51801;DHT22;37855;53.204;6.568;2023-06-04T01:32:16;11.50;74.70
51801;DHT22;37855;53.204;6.568;2023-06-04T01:34:46;11.50;75.10
51801;DHT22;37855;53.204;6.568;2023-06-04T01:37:12;11.50;75.00
51801;DHT22;37855;53.204;6.568;2023-06-04T01:39:38;11.50;74.70
51801;DHT22;37855;53.204;6.568;2023-06-04T01:42:04;11.50;74.80
51801;DHT22;37855;53.204;6.568;2023-06-04T01:44:30;11.40;75.10
51801;DHT22;37855;53.204;6.568;2023-06-04T01:46:56;11.40;75.40
51801;DHT22;37855;53.204;6.568;2023-06-04T01:49:21;11.40;75.20
51801;DHT22;37855;53.204;6.568;2023-06-04T01:51:47;11.40;75.60
51801;DHT22;37855;53.204;6.568;2023-06-04T01:54:12;11.40;76.00
51801;DHT22;37855;53.204;6.568;2023-06-04T01:56:41;11.40;76.00
51801;DHT22;37855;53.204;6.568;2023-06-04T01:59:07;11.40;75.50
51801;DHT22;37855;53.204;6.568;2023-06-04T02:01:33;11.40;75.60
51801;DHT22;37855;53.204;6.568;2023-06-04T02:03:59;11.40;75.90
51801;DHT22;37855;53.204;6.568;2023-06-04T02:06:26;11.40;76.10
51801;DHT22;37855;53.204;6.568;2023-06-04T02:08:55;11.30;75.60
51801;DHT22;37855;53.204;6.568;2023-06-04T02:11:21;11.40;75.60
51801;DHT22;37855;53.204;6.568;2023-06-04T02:13:47;11.40;75.50
51801;DHT22;37855;53.204;6.568;2023-06-04T02:16:13;11.30;75.80
51801;DHT22;37855;53.204;6.568;2023-06-04T02:18:38;11.40;75.50
51801;DHT22;37855;53.204;6.568;2023-06-04T02:21:05;11.40;76.50
51801;DHT22;37855;53.204;6.568;2023-06-04T02:23:30;11.30;76.30
51801;DHT22;37855;53.204;6.568;2023-06-04T02:25:56;11.30;75.70
51801;DHT22;37855;53.204;6.568;2023-06-04T02:28:22;11.30;75.70
51801;DHT22;37855;53.204;6.568;2023-06-04T02:30:47;11.40;75.80
51801;DHT22;37855;53.204;6.568;2023-06-04T02:33:14;11.40;75.70
51801;DHT22;37855;53.204;6.568;2023-06-04T02:35:39;11.40;75.90
51801;DHT22;37855;53.204;6.568;2023-06-04T02:38:06;11.40;75.80
51801;DHT22;37855;53.204;6.568;2023-06-04T02:40:32;11.40;75.70
51801;DHT22;37855;53.204;6.568;2023-06-04T02:42:58;11.30;75.90
51801;DHT22;37855;53.204;6.568;2023-06-04T02:45:24;11.30;75.80
51801;DHT22;37855;53.204;6.568;2023-06-04T02:47:50;11.40;76.00
51801;DHT22;37855;53.204;6.568;2023-06-04T02:50:16;11.30;76.60
51801;DHT22;37855;53.204;6.568;2023-06-04T02:52:42;11.20;76.70
51801;DHT22;37855;53.204;6.568;2023-06-04T02:55:08;11.30;76.40
51801;DHT22;37855;53.204;6.568;2023-06-04T02:57:35;11.20;76.80
51801;DHT22;37855;53.204;6.568;2023-06-04T03:00:01;11.30;76.40
51801;DHT22;37855;53.204;6.568;2023-06-04T03:02:33;11.30;76.30
51801;DHT22;37855;53.204;6.568;2023-06-04T03:04:59;11.30;76.10
51801;DHT22;37855;53.204;6.568;2023-06-04T03:07:24;11.40;76.20
51801;DHT22;37855;53.204;6.568;2023-06-04T03:09:50;11.40;76.20
51801;DHT22;37855;53.204;6.568;2023-06-04T03:12:19;11.40;76.20
51801;DHT22;37855;53.204;6.568;2023-06-04T03:14:44;11.40;76.00
51801;DHT22;37855;53.204;6.568;2023-06-04T03:17:10;11.30;76.10
51801;DHT22;37855;53.204;6.568;2023-06-04T03:19:37;11.20;76.20
51801;DHT22;37855;53.204;6.568;2023-06-04T03:22:04;11.10;77.00
51801;DHT22;37855;53.204;6.568;2023-06-04T03:24:34;11.00;77.30
51801;DHT22;37855;53.204;6.568;2023-06-04T03:27:01;11.00;77.30
51801;DHT22;37855;53.204;6.568;2023-06-04T03:29:27;11.00;77.40
51801;DHT22;37855;53.204;6.568;2023-06-04T03:31:52;10.90;77.00
51801;DHT22;37855;53.204;6.568;2023-06-04T03:34:18;11.00;77.10
51801;DHT22;37855;53.204;6.568;2023-06-04T03:36:44;11.00;76.90
51801;DHT22;37855;53.204;6.568;2023-06-04T03:39:10;11.00;77.00
51801;DHT22;37855;53.204;6.568;2023-06-04T03:41:36;11.10;77.10
51801;DHT22;37855;53.204;6.568;2023-06-04T03:44:01;11.00;77.10
51801;DHT22;37855;53.204;6.568;2023-06-04T03:46:27;11.00;77.50
51801;DHT22;37855;53.204;6.568;2023-06-04T03:48:57;11.30;77.70
51801;DHT22;37855;53.204;6.568;2023-06-04T03:51:23;11.60;77.20
51801;DHT22;37855;53.204;6.568;2023-06-04T03:53:48;11.80;76.30
51801;DHT22;37855;53.204;6.568;2023-06-04T03:56:14;12.00;76.00
51801;DHT22;37855;53.204;6.568;2023-06-04T03:58:40;12.20;75.20
51801;DHT22;37855;53.204;6.568;2023-06-04T04:01:05;12.20;74.50
51801;DHT22;37855;53.204;6.568;2023-06-04T04:03:33;12.10;74.70
51801;DHT22;37855;53.204;6.568;2023-06-04T04:06:00;12.00;74.60
51801;DHT22;37855;53.204;6.568;2023-06-04T04:08:26;12.00;74.80
51801;DHT22;37855;53.204;6.568;2023-06-04T04:10:55;12.00;75.00
51801;DHT22;37855;53.204;6.568;2023-06-04T04:13:21;11.90;75.10
51801;DHT22;37855;53.204;6.568;2023-06-04T04:15:46;11.80;75.60
51801;DHT22;37855;53.204;6.568;2023-06-04T04:18:13;11.70;75.60
51801;DHT22;37855;53.204;6.568;2023-06-04T04:20:42;11.70;75.90
51801;DHT22;37855;53.204;6.568;2023-06-04T04:23:08;11.70;76.10
51801;DHT22;37855;53.204;6.568;2023-06-04T04:25:33;11.80;76.20
51801;DHT22;37855;53.204;6.568;2023-06-04T04:27:59;11.70;76.20
51801;DHT22;37855;53.204;6.568;2023-06-04T04:30:26;11.70;76.20
51801;DHT22;37855;53.204;6.568;2023-06-04T04:32:51;11.80;76.20
51801;DHT22;37855;53.204;6.568;2023-06-04T04:35:17;11.90;76.10
51801;DHT22;37855;53.204;6.568;2023-06-04T04:37:44;11.80;76.40
51801;DHT22;37855;53.204;6.568;2023-06-04T04:40:10;11.80;76.60
51801;DHT22;37855;53.204;6.568;2023-06-04T04:42:37;11.70;76.40
51801;DHT22;37855;53.204;6.568;2023-06-04T04:45:03;11.80;76.40
51801;DHT22;37855;53.204;6.568;2023-06-04T04:47:29;11.80;76.20
51801;DHT22;37855;53.204;6.568;2023-06-04T04:49:54;11.80;76.30
51801;DHT22;37855;53.204;6.568;2023-06-04T04:52:20;11.90;76.30
51801;DHT22;37855;53.204;6.568;2023-06-04T04:54:46;12.00;76.10
51801;DHT22;37855;53.204;6.568;2023-06-04T04:57:11;12.00;76.20
51801;DHT22;37855;53.204;6.568;2023-06-04T04:59:37;12.10;76.00
51801;DHT22;37855;53.204;6.568;2023-06-04T05:02:03;12.10;75.70
51801;DHT22;37855;53.204;6.568;2023-06-04T05:04:29;12.10;76.00
51801;DHT22;37855;53.204;6.568;2023-06-04T05:06:54;12.10;76.20
51801;DHT22;37855;53.204;6.568;2023-06-04T05:09:20;12.10;76.40
51801;DHT22;37855;53.204;6.568;2023-06-04T05:11:46;12.10;76.20
51801;DHT22;37855;53.204;6.568;2023-06-04T05:14:11;12.10;76.30
51801;DHT22;37855;53.204;6.568;2023-06-04T05:16:37;12.20;76.20
51801;DHT22;37855;53.204;6.568;2023-06-04T05:19:04;12.20;76.00
51801;DHT22;37855;53.204;6.568;2023-06-04T05:21:29;12.30;76.20
51801;DHT22;37855;53.204;6.568;2023-06-04T05:23:55;12.40;75.90
51801;DHT22;37855;53.204;6.568;2023-06-04T05:26:21;12.50;75.90
51801;DHT22;37855;53.204;6.568;2023-06-04T05:28:51;12.60;75.50
51801;DHT22;37855;53.204;6.568;2023-06-04T05:31:17;12.60;75.40
51801;DHT22;37855;53.204;6.568;2023-06-04T05:33:43;12.70;75.30
51801;DHT22;37855;53.204;6.568;2023-06-04T05:36:09;12.70;75.20
51801;DHT22;37855;53.204;6.568;2023-06-04T05:38:35;12.80;75.10
51801;DHT22;37855;53.204;6.568;2023-06-04T05:41:01;12.80;74.90
51801;DHT22;37855;53.204;6.568;2023-06-04T05:43:27;12.90;74.80
51801;DHT22;37855;53.204;6.568;2023-06-04T05:45:53;13.00;74.20
51801;DHT22;37855;53.204;6.568;2023-06-04T05:48:19;13.00;74.00
51801;DHT22;37855;53.204;6.568;2023-06-04T05:50:44;13.00;74.30
51801;DHT22;37855;53.204;6.568;2023-06-04T05:53:10;13.00;74.30
51801;DHT22;37855;53.204;6.568;2023-06-04T05:55:36;13.00;74.00
51801;DHT22;37855;53.204;6.568;2023-06-04T05:58:02;13.10;73.80
51801;DHT22;37855;53.204;6.568;2023-06-04T06:00:27;13.10;73.50
51801;DHT22;37855;53.204;6.568;2023-06-04T06:02:53;13.10;73.50
51801;DHT22;37855;53.204;6.568;2023-06-04T06:05:19;13.20;72.70
51801;DHT22;37855;53.204;6.568;2023-06-04T06:07:45;13.20;72.80
51801;DHT22;37855;53.204;6.568;2023-06-04T06:10:11;13.20;72.80
51801;DHT22;37855;53.204;6.568;2023-06-04T06:12:37;13.20;72.50
51801;DHT22;37855;53.204;6.568;2023-06-04T06:15:04;13.00;72.50
51801;DHT22;37855;53.204;6.568;2023-06-04T06:17:33;13.10;72.30
51801;DHT22;37855;53.204;6.568;2023-06-04T06:20:02;13.20;72.10
51801;DHT22;37855;53.204;6.568;2023-06-04T06:22:35;13.20;72.20
51801;DHT22;37855;53.204;6.568;2023-06-04T06:25:02;13.30;72.10
51801;DHT22;37855;53.204;6.568;2023-06-04T06:27:28;13.40;71.90
51801;DHT22;37855;53.204;6.568;2023-06-04T06:29:54;13.30;71.40
51801;DHT22;37855;53.204;6.568;2023-06-04T06:32:19;13.30;71.50
51801;DHT22;37855;53.204;6.568;2023-06-04T06:34:45;13.40;71.60
51801;DHT22;37855;53.204;6.568;2023-06-04T06:37:11;13.50;71.30
51801;DHT22;37855;53.204;6.568;2023-06-04T06:39:36;13.60;70.80
51801;DHT22;37855;53.204;6.568;2023-06-04T06:42:02;13.70;70.90
51801;DHT22;37855;53.204;6.568;2023-06-04T06:44:28;13.80;70.80
51801;DHT22;37855;53.204;6.568;2023-06-04T06:46:53;13.90;70.10
51801;DHT22;37855;53.204;6.568;2023-06-04T06:49:19;14.00;69.70
51801;DHT22;37855;53.204;6.568;2023-06-04T06:51:45;14.00;69.70
51801;DHT22;37855;53.204;6.568;2023-06-04T06:54:10;14.00;69.20
51801;DHT22;37855;53.204;6.568;2023-06-04T06:56:36;14.10;69.10
51801;DHT22;37855;53.204;6.568;2023-06-04T06:59:02;14.20;66.40
51801;DHT22;37855;53.204;6.568;2023-06-04T07:01:27;14.20;66.50
51801;DHT22;37855;53.204;6.568;2023-06-04T07:03:53;14.30;66.00
51801;DHT22;37855;53.204;6.568;2023-06-04T07:06:23;14.50;63.10
51801;DHT22;37855;53.204;6.568;2023-06-04T07:08:49;14.50;63.10
51801;DHT22;37855;53.204;6.568;2023-06-04T07:11:14;14.60;62.20
51801;DHT22;37855;53.204;6.568;2023-06-04T07:13:45;14.60;62.60
51801;DHT22;37855;53.204;6.568;2023-06-04T07:16:10;14.60;62.40
51801;DHT22;37855;53.204;6.568;2023-06-04T07:18:36;14.70;62.00
51801;DHT22;37855;53.204;6.568;2023-06-04T07:21:02;14.70;62.40
51801;DHT22;37855;53.204;6.568;2023-06-04T07:23:27;14.80;61.60
51801;DHT22;37855;53.204;6.568;2023-06-04T07:25:53;14.90;61.40
51801;DHT22;37855;53.204;6.568;2023-06-04T07:28:19;15.00;60.50
51801;DHT22;37855;53.204;6.568;2023-06-04T07:30:47;15.00;59.40
51801;DHT22;37855;53.204;6.568;2023-06-04T07:33:13;15.10;59.40
51801;DHT22;37855;53.204;6.568;2023-06-04T07:35:38;15.10;59.70
51801;DHT22;37855;53.204;6.568;2023-06-04T07:38:04;15.00;57.10
51801;DHT22;37855;53.204;6.568;2023-06-04T07:40:30;15.00;57.70
51801;DHT22;37855;53.204;6.568;2023-06-04T07:42:56;15.10;57.10
51801;DHT22;37855;53.204;6.568;2023-06-04T07:45:21;15.10;57.30
51801;DHT22;37855;53.204;6.568;2023-06-04T07:47:47;15.20;58.10
51801;DHT22;37855;53.204;6.568;2023-06-04T07:50:13;15.30;58.00
51801;DHT22;37855;53.204;6.568;2023-06-04T07:52:38;15.40;57.60
51801;DHT22;37855;53.204;6.568;2023-06-04T07:55:04;15.50;57.80
51801;DHT22;37855;53.204;6.568;2023-06-04T07:57:30;15.60;58.10
51801;DHT22;37855;53.204;6.568;2023-06-04T07:59:57;15.60;58.50
51801;DHT22;37855;53.204;6.568;2023-06-04T08:02:23;15.70;58.00
51801;DHT22;37855;53.204;6.568;2023-06-04T08:04:49;15.70;58.50
51801;DHT22;37855;53.204;6.568;2023-06-04T08:07:15;15.70;58.00
51801;DHT22;37855;53.204;6.568;2023-06-04T08:09:41;15.80;58.40
51801;DHT22;37855;53.204;6.568;2023-06-04T08:12:07;15.80;58.80
51801;DHT22;37855;53.204;6.568;2023-06-04T08:14:32;15.60;59.20
51801;DHT22;37855;53.204;6.568;2023-06-04T08:16:58;15.70;59.60
51801;DHT22;37855;53.204;6.568;2023-06-04T08:19:24;15.90;59.20
51801;DHT22;37855;53.204;6.568;2023-06-04T08:21:50;16.00;59.20
51801;DHT22;37855;53.204;6.568;2023-06-04T08:24:16;16.10;58.00
51801;DHT22;37855;53.204;6.568;2023-06-04T08:26:41;16.20;57.90
51801;DHT22;37855;53.204;6.568;2023-06-04T08:29:07;16.10;58.00
51801;DHT22;37855;53.204;6.568;2023-06-04T08:31:33;16.10;58.40
51801;DHT22;37855;53.204;6.568;2023-06-04T08:33:59;16.20;58.90
51801;DHT22;37855;53.204;6.568;2023-06-04T08:36:25;16.30;58.90
51801;DHT22;37855;53.204;6.568;2023-06-04T08:38:51;16.30;59.00
51801;DHT22;37855;53.204;6.568;2023-06-04T08:41:20;16.40;58.70
51801;DHT22;37855;53.204;6.568;2023-06-04T08:43:50;16.40;58.80
51801;DHT22;37855;53.204;6.568;2023-06-04T08:46:17;16.50;58.40
51801;DHT22;37855;53.204;6.568;2023-06-04T08:48:44;16.60;58.40
51801;DHT22;37855;53.204;6.568;2023-06-04T08:51:11;16.60;57.90
51801;DHT22;37855;53.204;6.568;2023-06-04T08:53:36;16.70;57.60
51801;DHT22;37855;53.204;6.568;2023-06-04T08:56:03;16.70;57.80
51801;DHT22;37855;53.204;6.568;2023-06-04T08:58:32;16.70;57.00
51801;DHT22;37855;53.204;6.568;2023-06-04T09:01:00;16.80;56.70
51801;DHT22;37855;53.204;6.568;2023-06-04T09:03:27;16.80;56.20
51801;DHT22;37855;53.204;6.568;2023-06-04T09:05:54;16.80;55.10
51801;DHT22;37855;53.204;6.568;2023-06-04T09:08:21;16.80;55.10
51801;DHT22;37855;53.204;6.568;2023-06-04T09:10:49;16.80;54.10
51801;DHT22;37855;53.204;6.568;2023-06-04T09:13:18;16.90;54.10
51801;DHT22;37855;53.204;6.568;2023-06-04T09:15:59;16.80;54.20
51801;DHT22;37855;53.204;6.568;2023-06-04T09:18:29;16.70;53.90
51801;DHT22;37855;53.204;6.568;2023-06-04T09:21:08;16.60;54.30
51801;DHT22;37855;53.204;6.568;2023-06-04T09:23:44;16.70;54.30
51801;DHT22;37855;53.204;6.568;2023-06-04T09:26:11;16.70;54.40
51801;DHT22;37855;53.204;6.568;2023-06-04T09:28:41;16.90;54.00
51801;DHT22;37855;53.204;6.568;2023-06-04T09:31:14;17.00;54.10
51801;DHT22;37855;53.204;6.568;2023-06-04T09:33:50;17.00;53.60
51801;DHT22;37855;53.204;6.568;2023-06-04T09:36:16;17.10;54.40
51801;DHT22;37855;53.204;6.568;2023-06-04T09:38:42;17.10;54.20
51801;DHT22;37855;53.204;6.568;2023-06-04T09:41:13;17.20;54.50
51801;DHT22;37855;53.204;6.568;2023-06-04T09:43:39;17.20;54.00
51801;DHT22;37855;53.204;6.568;2023-06-04T09:46:23;17.00;53.70
51801;DHT22;37855;53.204;6.568;2023-06-04T09:48:58;17.10;53.40
51801;DHT22;37855;53.204;6.568;2023-06-04T09:51:25;17.20;53.80
51801;DHT22;37855;53.204;6.568;2023-06-04T09:53:58;17.20;54.30
51801;DHT22;37855;53.204;6.568;2023-06-04T09:56:26;17.20;54.40
51801;DHT22;37855;53.204;6.568;2023-06-04T09:58:59;17.20;54.30
51801;DHT22;37855;53.204;6.568;2023-06-04T10:01:29;17.40;54.20
51801;DHT22;37855;53.204;6.568;2023-06-04T10:04:03;17.50;54.50
51801;DHT22;37855;53.204;6.568;2023-06-04T10:06:34;17.60;53.50
51801;DHT22;37855;53.204;6.568;2023-06-04T10:09:05;17.60;53.20
51801;DHT22;37855;53.204;6.568;2023-06-04T10:11:37;17.40;53.40
51801;DHT22;37855;53.204;6.568;2023-06-04T10:14:10;17.40;53.00
51801;DHT22;37855;53.204;6.568;2023-06-04T10:16:41;17.30;53.60
51801;DHT22;37855;53.204;6.568;2023-06-04T10:19:08;17.40;53.10
51801;DHT22;37855;53.204;6.568;2023-06-04T10:21:34;17.50;53.20
51801;DHT22;37855;53.204;6.568;2023-06-04T10:24:01;17.60;52.90
51801;DHT22;37855;53.204;6.568;2023-06-04T10:26:27;17.80;52.90
51801;DHT22;37855;53.204;6.568;2023-06-04T10:28:53;17.80;52.60
51801;DHT22;37855;53.204;6.568;2023-06-04T10:31:18;17.80;52.40
51801;DHT22;37855;53.204;6.568;2023-06-04T10:33:44;17.90;52.40
51801;DHT22;37855;53.204;6.568;2023-06-04T10:36:19;17.90;52.70
51801;DHT22;37855;53.204;6.568;2023-06-04T10:38:53;17.80;52.70
51801;DHT22;37855;53.204;6.568;2023-06-04T10:41:19;17.80;53.60
51801;DHT22;37855;53.204;6.568;2023-06-04T10:43:47;17.90;52.50
51801;DHT22;37855;53.204;6.568;2023-06-04T10:46:18;17.90;52.50
51801;DHT22;37855;53.204;6.568;2023-06-04T10:48:53;17.80;52.60
51801;DHT22;37855;53.204;6.568;2023-06-04T10:51:29;17.90;53.00
51801;DHT22;37855;53.204;6.568;2023-06-04T10:53:59;17.90;52.90
51801;DHT22;37855;53.204;6.568;2023-06-04T10:56:33;17.80;53.30
51801;DHT22;37855;53.204;6.568;2023-06-04T10:59:13;17.80;53.50
51801;DHT22;37855;53.204;6.568;2023-06-04T11:01:40;17.80;53.70
51801;DHT22;37855;53.204;6.568;2023-06-04T11:04:05;17.80;53.60
51801;DHT22;37855;53.204;6.568;2023-06-04T11:06:31;17.90;52.60
51801;DHT22;37855;53.204;6.568;2023-06-04T11:09:04;18.00;52.70
51801;DHT22;37855;53.204;6.568;2023-06-04T11:11:34;18.00;52.10
51801;DHT22;37855;53.204;6.568;2023-06-04T11:14:09;18.10;52.20
51801;DHT22;37855;53.204;6.568;2023-06-04T11:16:37;18.10;52.60
51801;DHT22;37855;53.204;6.568;2023-06-04T11:19:02;18.20;53.00
51801;DHT22;37855;53.204;6.568;2023-06-04T11:21:29;18.30;51.70
51801;DHT22;37855;53.204;6.568;2023-06-04T11:24:00;18.30;51.20
51801;DHT22;37855;53.204;6.568;2023-06-04T11:26:34;18.20;51.90
51801;DHT22;37855;53.204;6.568;2023-06-04T11:29:00;18.20;52.60
51801;DHT22;37855;53.204;6.568;2023-06-04T11:31:27;18.30;52.30
51801;DHT22;37855;53.204;6.568;2023-06-04T11:33:52;18.30;52.50
51801;DHT22;37855;53.204;6.568;2023-06-04T11:36:27;18.30;52.80
51801;DHT22;37855;53.204;6.568;2023-06-04T11:39:02;18.30;52.70
51801;DHT22;37855;53.204;6.568;2023-06-04T11:41:32;18.30;52.50
51801;DHT22;37855;53.204;6.568;2023-06-04T11:44:02;18.40;52.50
51801;DHT22;37855;53.204;6.568;2023-06-04T11:46:31;18.40;52.80
51801;DHT22;37855;53.204;6.568;2023-06-04T11:48:57;18.40;52.60
51801;DHT22;37855;53.204;6.568;2023-06-04T11:51:24;18.40;52.50
51801;DHT22;37855;53.204;6.568;2023-06-04T11:53:49;18.40;52.20
51801;DHT22;37855;53.204;6.568;2023-06-04T11:56:16;18.40;52.40
51801;DHT22;37855;53.204;6.568;2023-06-04T11:58:42;18.40;52.30
51801;DHT22;37855;53.204;6.568;2023-06-04T12:01:11;18.50;52.10
51801;DHT22;37855;53.204;6.568;2023-06-04T12:03:42;18.50;51.70
51801;DHT22;37855;53.204;6.568;2023-06-04T12:08:54;18.50;52.00
51801;DHT22;37855;53.204;6.568;2023-06-04T12:11:33;18.40;52.30
51801;DHT22;37855;53.204;6.568;2023-06-04T12:14:00;18.50;52.20
51801;DHT22;37855;53.204;6.568;2023-06-04T12:16:26;18.50;52.20
51801;DHT22;37855;53.204;6.568;2023-06-04T12:19:07;18.60;52.00
51801;DHT22;37855;53.204;6.568;2023-06-04T12:21:33;18.50;52.20
51801;DHT22;37855;53.204;6.568;2023-06-04T12:26:35;18.60;52.70
51801;DHT22;37855;53.204;6.568;2023-06-04T12:29:10;18.70;52.50
51801;DHT22;37855;53.204;6.568;2023-06-04T12:31:40;18.80;52.20
51801;DHT22;37855;53.204;6.568;2023-06-04T12:34:06;18.80;52.10
51801;DHT22;37855;53.204;6.568;2023-06-04T12:36:34;18.80;52.20
51801;DHT22;37855;53.204;6.568;2023-06-04T12:39:02;18.90;51.70
51801;DHT22;37855;53.204;6.568;2023-06-04T12:41:28;18.90;51.60
51801;DHT22;37855;53.204;6.568;2023-06-04T12:43:55;18.80;52.30
51801;DHT22;37855;53.204;6.568;2023-06-04T12:46:22;18.80;52.40
51801;DHT22;37855;53.204;6.568;2023-06-04T12:48:52;18.80;52.60
51801;DHT22;37855;53.204;6.568;2023-06-04T12:51:19;18.90;52.30
51801;DHT22;37855;53.204;6.568;2023-06-04T12:53:46;18.80;52.20
51801;DHT22;37855;53.204;6.568;2023-06-04T12:56:12;18.70;52.50
51801;DHT22;37855;53.204;6.568;2023-06-04T12:58:38;18.60;52.50
51801;DHT22;37855;53.204;6.568;2023-06-04T13:01:04;18.50;52.80
51801;DHT22;37855;53.204;6.568;2023-06-04T13:03:31;18.60;52.50
51801;DHT22;37855;53.204;6.568;2023-06-04T13:05:57;18.60;53.00
51801;DHT22;37855;53.204;6.568;2023-06-04T13:08:23;18.50;52.80
51801;DHT22;37855;53.204;6.568;2023-06-04T13:10:50;18.60;53.10
51801;DHT22;37855;53.204;6.568;2023-06-04T13:13:17;18.80;53.10
51801;DHT22;37855;53.204;6.568;2023-06-04T13:15:43;18.70;52.40
51801;DHT22;37855;53.204;6.568;2023-06-04T13:18:10;18.80;52.40
51801;DHT22;37855;53.204;6.568;2023-06-04T13:20:36;18.80;52.40
51801;DHT22;37855;53.204;6.568;2023-06-04T13:23:02;18.80;52.50
51801;DHT22;37855;53.204;6.568;2023-06-04T13:25:29;18.80;51.70
51801;DHT22;37855;53.204;6.568;2023-06-04T13:27:58;18.90;51.60
51801;DHT22;37855;53.204;6.568;2023-06-04T13:30:24;18.80;52.10
51801;DHT22;37855;53.204;6.568;2023-06-04T13:32:52;18.80;52.50
51801;DHT22;37855;53.204;6.568;2023-06-04T13:35:24;18.90;52.30
51801;DHT22;37855;53.204;6.568;2023-06-04T13:37:50;18.90;51.80
51801;DHT22;37855;53.204;6.568;2023-06-04T13:40:16;18.80;52.10
51801;DHT22;37855;53.204;6.568;2023-06-04T13:42:41;18.80;52.40
51801;DHT22;37855;53.204;6.568;2023-06-04T13:45:09;18.90;52.40
51801;DHT22;37855;53.204;6.568;2023-06-04T13:47:34;19.00;51.70
51801;DHT22;37855;53.204;6.568;2023-06-04T13:50:01;19.00;51.70
51801;DHT22;37855;53.204;6.568;2023-06-04T13:52:27;19.00;52.20
51801;DHT22;37855;53.204;6.568;2023-06-04T13:54:54;19.00;52.50
51801;DHT22;37855;53.204;6.568;2023-06-04T13:57:20;19.00;52.70
51801;DHT22;37855;53.204;6.568;2023-06-04T13:59:49;19.00;52.70
51801;DHT22;37855;53.204;6.568;2023-06-04T14:02:17;18.80;52.10
51801;DHT22;37855;53.204;6.568;2023-06-04T14:04:42;18.80;52.70
51801;DHT22;37855;53.204;6.568;2023-06-04T14:07:08;18.70;53.10
51801;DHT22;37855;53.204;6.568;2023-06-04T14:09:35;18.70;53.20
51801;DHT22;37855;53.204;6.568;2023-06-04T14:12:04;18.70;53.50
51801;DHT22;37855;53.204;6.568;2023-06-04T14:14:29;18.60;53.10
51801;DHT22;37855;53.204;6.568;2023-06-04T14:17:05;18.60;52.90
51801;DHT22;37855;53.204;6.568;2023-06-04T14:19:34;18.40;53.30
51801;DHT22;37855;53.204;6.568;2023-06-04T14:22:03;18.30;53.60
51801;DHT22;37855;53.204;6.568;2023-06-04T14:24:28;18.30;53.50
51801;DHT22;37855;53.204;6.568;2023-06-04T14:26:55;18.30;53.50
51801;DHT22;37855;53.204;6.568;2023-06-04T14:29:21;18.20;53.40
51801;DHT22;37855;53.204;6.568;2023-06-04T14:31:47;18.10;54.00
51801;DHT22;37855;53.204;6.568;2023-06-04T14:34:12;18.10;53.60
51801;DHT22;37855;53.204;6.568;2023-06-04T14:36:41;18.10;53.70
51801;DHT22;37855;53.204;6.568;2023-06-04T14:39:06;18.20;53.90
51801;DHT22;37855;53.204;6.568;2023-06-04T14:41:32;18.20;53.60
51801;DHT22;37855;53.204;6.568;2023-06-04T14:43:58;18.20;53.60
51801;DHT22;37855;53.204;6.568;2023-06-04T14:46:25;18.20;53.00
51801;DHT22;37855;53.204;6.568;2023-06-04T14:48:53;18.00;54.10
51801;DHT22;37855;53.204;6.568;2023-06-04T14:51:25;18.00;54.10
51801;DHT22;37855;53.204;6.568;2023-06-04T14:53:51;18.00;54.40
51801;DHT22;37855;53.204;6.568;2023-06-04T14:56:20;18.10;54.50
51801;DHT22;37855;53.204;6.568;2023-06-04T14:58:49;18.20;53.60
51801;DHT22;37855;53.204;6.568;2023-06-04T15:01:18;18.10;53.70
51801;DHT22;37855;53.204;6.568;2023-06-04T15:03:44;18.10;54.40
51801;DHT22;37855;53.204;6.568;2023-06-04T15:06:11;18.10;54.90
51801;DHT22;37855;53.204;6.568;2023-06-04T15:08:37;18.10;54.80
51801;DHT22;37855;53.204;6.568;2023-06-04T15:11:03;18.00;55.00
51801;DHT22;37855;53.204;6.568;2023-06-04T15:13:29;17.80;55.20
51801;DHT22;37855;53.204;6.568;2023-06-04T15:15:55;17.70;55.30
51801;DHT22;37855;53.204;6.568;2023-06-04T15:18:21;17.70;55.60
51801;DHT22;37855;53.204;6.568;2023-06-04T15:20:50;17.80;55.60
51801;DHT22;37855;53.204;6.568;2023-06-04T15:23:16;17.80;55.60
51801;DHT22;37855;53.204;6.568;2023-06-04T15:25:43;17.80;55.40
51801;DHT22;37855;53.204;6.568;2023-06-04T15:28:09;17.70;55.40
51801;DHT22;37855;53.204;6.568;2023-06-04T15:30:34;17.70;55.40
51801;DHT22;37855;53.204;6.568;2023-06-04T15:33:00;17.70;55.70
51801;DHT22;37855;53.204;6.568;2023-06-04T15:35:27;17.70;55.60
51801;DHT22;37855;53.204;6.568;2023-06-04T15:37:53;17.70;55.60